createdAt,value
2023-05-03T00:00:09.378Z,82.83
2023-05-03T00:03:13.570Z,81.77
2023-05-03T00:06:17.135Z,83.26
2023-05-03T00:09:19.825Z,82.73
2023-05-03T00:12:22.487Z,83.70
2023-05-03T00:15:25.383Z,84.47
2023-05-03T00:18:30.401Z,83.96
2023-05-03T00:21:32.984Z,84.82
2023-05-03T00:24:35.741Z,84.63
2023-05-03T00:27:38.469Z,84.21
2023-05-03T00:30:41.218Z,84.81
2023-05-03T00:33:45.182Z,84.79
2023-05-03T00:36:47.859Z,84.30
2023-05-03T00:39:50.532Z,84.89
2023-05-03T00:42:53.109Z,86.30
2023-05-03T00:46:04.621Z,85.72
2023-05-03T00:49:17.119Z,85.17
2023-05-03T00:52:19.709Z,86.71
2023-05-03T00:55:22.705Z,86.05
2023-05-03T00:58:25.860Z,86.10
2023-05-03T01:01:29.199Z,85.28
2023-05-03T01:04:33.496Z,86.68
2023-05-03T01:07:45.271Z,86.92
2023-05-03T01:10:55.928Z,86.48
2023-05-03T01:14:05.460Z,86.14
2023-05-03T01:17:12.651Z,86.93
2023-05-03T01:20:24.769Z,86.53
2023-05-03T01:23:37.342Z,87.96
2023-05-03T01:26:41.332Z,87.45
2023-05-03T01:29:44.739Z,88.00
2023-05-03T01:32:56.032Z,88.35
2023-05-03T01:36:03.339Z,88.83
2023-05-03T01:39:11.722Z,88.30
2023-05-03T01:42:16.770Z,87.42
2023-05-03T01:45:20.084Z,88.13
2023-05-03T01:48:25.665Z,88.68
2023-05-03T01:51:28.320Z,88.96
2023-05-03T01:54:31.104Z,87.72
2023-05-03T01:57:35.047Z,88.41
2023-05-03T02:00:37.599Z,89.47
2023-05-03T02:03:40.172Z,89.22
2023-05-03T02:06:42.775Z,90.68
2023-05-03T02:09:45.382Z,90.77
2023-05-03T02:12:49.401Z,91.15
2023-05-03T02:15:51.998Z,90.51
2023-05-03T02:18:59.194Z,91.68
2023-05-03T02:22:01.838Z,91.65
2023-05-03T02:25:04.973Z,91.79
2023-05-03T02:28:08.996Z,90.66
2023-05-03T02:31:13.446Z,91.51
2023-05-03T02:34:16.084Z,91.78
2023-05-03T02:37:18.719Z,92.32
2023-05-03T02:40:21.670Z,91.85
2023-05-03T02:43:25.652Z,91.14
2023-05-03T02:46:28.276Z,91.05
2023-05-03T02:49:31.190Z,91.10
2023-05-03T02:52:33.798Z,92.21
2023-05-03T02:55:36.641Z,93.15
2023-05-03T02:58:40.793Z,93.04
2023-05-03T03:01:43.728Z,94.23
2023-05-03T03:04:46.410Z,94.15
2023-05-03T03:07:49.119Z,95.38
2023-05-03T03:10:51.757Z,94.39
2023-05-03T03:13:59.398Z,94.56
2023-05-03T03:17:02.425Z,94.98
2023-05-03T03:20:06.108Z,95.19
2023-05-03T03:23:08.704Z,94.12
2023-05-03T03:26:11.294Z,93.84
2023-05-03T03:29:15.246Z,94.03
2023-05-03T03:32:17.833Z,94.02
2023-05-03T03:35:21.437Z,95.18
2023-05-03T03:38:24.008Z,95.27
2023-05-03T03:41:26.683Z,95.47
2023-05-03T03:44:30.779Z,96.56
2023-05-03T03:47:33.626Z,96.84
2023-05-03T03:50:36.236Z,96.03
2023-05-03T03:53:38.817Z,95.13
2023-05-03T03:56:41.432Z,95.65
2023-05-03T03:59:45.467Z,96.94
2023-05-03T04:02:48.874Z,96.04
2023-05-03T04:05:52.120Z,96.87
2023-05-03T04:08:54.692Z,95.78
2023-05-03T04:11:57.280Z,95.78
2023-05-03T04:15:01.260Z,96.86
2023-05-03T04:18:04.011Z,96.13
2023-05-03T04:21:06.741Z,97.36
2023-05-03T04:24:09.800Z,98.03
2023-05-03T04:27:14.712Z,97.87
2023-05-03T04:30:19.125Z,96.61
2023-05-03T04:33:21.993Z,95.52
2023-05-03T04:36:25.759Z,96.41
2023-05-03T04:39:28.480Z,97.29
2023-05-03T04:42:31.253Z,97.68
2023-05-03T04:45:35.232Z,97.19
2023-05-03T04:48:38.130Z,97.28
2023-05-03T04:51:40.802Z,98.67
2023-05-03T04:54:43.414Z,97.10
2023-05-03T04:57:45.996Z,95.39
2023-05-03T05:00:50.254Z,95.99
2023-05-03T05:03:53.374Z,95.34
2023-05-03T05:06:56.136Z,96.26
2023-05-03T05:09:58.776Z,96.36
2023-05-03T05:13:01.370Z,94.76
2023-05-03T05:16:05.900Z,95.58
2023-05-03T05:19:09.500Z,95.74
2023-05-03T05:22:12.129Z,94.10
2023-05-03T05:25:14.903Z,93.63
2023-05-03T05:28:17.763Z,93.73
2023-05-03T05:31:21.848Z,94.24
2023-05-03T05:34:24.473Z,93.91
2023-05-03T05:37:28.128Z,92.88
2023-05-03T05:40:30.789Z,92.12
2023-05-03T05:43:33.507Z,91.49
2023-05-03T05:46:37.476Z,92.26
2023-05-03T05:49:40.152Z,92.22
2023-05-03T05:52:42.747Z,92.22
2023-05-03T05:55:45.496Z,91.71
2023-05-03T05:58:48.095Z,90.85
2023-05-03T06:01:52.086Z,90.05
2023-05-03T06:04:54.736Z,89.24
2023-05-03T06:07:57.433Z,88.41
2023-05-03T06:11:00.147Z,87.59
2023-05-03T06:14:03.898Z,86.19
2023-05-03T06:17:07.861Z,86.04
2023-05-03T06:20:12.798Z,85.11
2023-05-03T06:23:15.421Z,83.47
2023-05-03T06:26:18.173Z,83.57
2023-05-03T06:29:20.788Z,84.47
2023-05-03T06:32:24.834Z,84.34
2023-05-03T06:35:28.257Z,82.20
2023-05-03T06:38:30.835Z,77.32
2023-05-03T06:41:33.965Z,76.37
2023-05-03T06:44:36.809Z,75.53
2023-05-03T06:47:42.824Z,73.24
2023-05-03T06:50:45.719Z,73.99
2023-05-03T06:53:48.291Z,72.87
2023-05-03T06:56:50.870Z,69.53
2023-05-03T06:59:53.443Z,69.92
2023-05-03T07:02:57.619Z,67.78
2023-05-03T07:06:00.753Z,70.05
2023-05-03T07:09:03.766Z,68.66
2023-05-03T07:12:06.608Z,64.37
2023-05-03T07:15:10.548Z,68.29
2023-05-03T07:18:14.556Z,66.37
2023-05-03T07:21:17.197Z,62.84
2023-05-03T07:24:19.796Z,61.66
2023-05-03T07:27:22.627Z,62.42
2023-05-03T07:30:25.523Z,61.07
2023-05-03T07:33:29.525Z,63.52
2023-05-03T07:36:32.182Z,65.09
2023-05-03T07:39:34.774Z,63.33
2023-05-03T07:42:37.498Z,62.50
2023-05-03T07:45:40.156Z,63.58
2023-05-03T07:48:44.096Z,60.08
2023-05-03T07:51:46.704Z,59.67
2023-05-03T07:54:49.314Z,57.49
2023-05-03T07:57:53.070Z,58.91
2023-05-03T08:00:55.926Z,58.21
2023-05-03T08:04:00.156Z,59.88
2023-05-03T08:07:04.080Z,56.59
2023-05-03T08:10:07.789Z,57.60
2023-05-03T08:13:10.492Z,57.03
2023-05-03T08:16:14.483Z,56.95
2023-05-03T08:19:18.490Z,55.96
2023-05-03T08:22:21.099Z,55.63
2023-05-03T08:25:24.929Z,56.10
2023-05-03T08:28:27.823Z,54.87
2023-05-03T08:31:31.124Z,54.76
2023-05-03T08:34:35.147Z,54.73
2023-05-03T08:37:40.968Z,53.91
2023-05-03T08:40:44.176Z,55.50
2023-05-03T08:43:47.187Z,56.17
2023-05-03T08:46:50.169Z,55.38
2023-05-03T08:49:54.678Z,53.98
2023-05-03T08:52:57.840Z,54.43
2023-05-03T08:56:00.446Z,53.77
2023-05-03T08:59:07.756Z,53.98
2023-05-03T09:02:11.788Z,54.80
2023-05-03T09:05:36.292Z,55.12
2023-05-03T09:08:44.355Z,54.14
2023-05-03T09:11:46.934Z,54.55
2023-05-03T09:14:50.374Z,53.96
2023-05-03T09:18:12.018Z,53.12
2023-05-03T09:21:20.314Z,52.02
2023-05-03T09:24:23.247Z,52.13
2023-05-03T09:27:26.882Z,52.07
2023-05-03T09:30:29.499Z,52.33
2023-05-03T09:33:32.118Z,51.69
2023-05-03T09:36:47.901Z,51.13
2023-05-03T09:40:07.702Z,51.91
2023-05-03T09:43:11.671Z,51.86
2023-05-03T09:46:15.191Z,50.58
2023-05-03T09:49:18.698Z,52.39
2023-05-03T09:52:23.284Z,49.94
2023-05-03T09:55:27.740Z,50.37
2023-05-03T09:58:30.878Z,50.81
2023-05-03T10:01:33.590Z,48.80
2023-05-03T10:04:40.986Z,48.58
2023-05-03T10:07:45.806Z,50.46
2023-05-03T10:10:54.200Z,48.66
2023-05-03T10:13:57.297Z,51.28
2023-05-03T10:17:03.523Z,49.85
2023-05-03T10:20:15.973Z,48.85
2023-05-03T10:23:19.953Z,49.83
2023-05-03T10:26:22.696Z,50.26
2023-05-03T10:29:51.851Z,50.86
2023-05-03T10:32:55.121Z,49.85
2023-05-03T10:35:59.109Z,49.78
2023-05-03T10:39:04.527Z,52.00
2023-05-03T10:42:09.815Z,50.91
2023-05-03T10:45:22.181Z,46.68
2023-05-03T10:48:24.839Z,44.51
2023-05-03T10:51:37.199Z,40.29
2023-05-03T10:54:41.416Z,41.75
2023-05-03T10:57:46.724Z,42.03
2023-05-03T11:00:52.196Z,41.75
2023-05-03T11:04:03.349Z,40.17
2023-05-03T11:07:06.068Z,42.29
2023-05-03T11:10:20.358Z,40.56
2023-05-03T11:13:23.074Z,43.41
2023-05-03T11:16:27.154Z,41.39
2023-05-03T11:19:30.410Z,41.47
2023-05-03T11:22:33.694Z,42.69
2023-05-03T11:25:38.574Z,42.17
2023-05-03T11:28:41.815Z,43.72
2023-05-03T11:31:44.495Z,43.53
2023-05-03T11:34:47.182Z,43.62
2023-05-03T11:37:49.735Z,46.00
2023-05-03T11:40:53.750Z,45.95
2023-05-03T11:44:07.902Z,44.58
2023-05-03T11:47:18.581Z,44.98
2023-05-03T11:50:28.998Z,38.63
2023-05-03T11:53:31.644Z,39.01
2023-05-03T11:56:35.709Z,39.73
2023-05-03T11:59:39.384Z,38.31
2023-05-03T12:02:42.400Z,39.13
2023-05-03T12:05:45.751Z,35.30
2023-05-03T12:08:48.856Z,35.46
2023-05-03T12:11:54.982Z,36.29
2023-05-03T12:14:59.896Z,34.59
2023-05-03T12:18:04.662Z,35.75
2023-05-03T12:21:30.729Z,34.40
2023-05-03T12:24:33.047Z,34.66
2023-05-03T12:27:39.197Z,34.74
2023-05-03T12:30:45.982Z,33.80
2023-05-03T12:34:07.221Z,33.97
2023-05-03T12:37:12.203Z,33.78
2023-05-03T12:40:32.373Z,33.93
2023-05-03T12:43:38.307Z,33.77
2023-05-03T12:46:44.814Z,33.14
2023-05-03T12:49:51.893Z,32.19
2023-05-03T12:52:54.853Z,33.28
2023-05-03T12:55:58.656Z,33.35
2023-05-03T12:59:35.155Z,31.82
2023-05-03T13:05:35.227Z,32.48
2023-05-03T13:08:41.084Z,31.47
2023-05-03T13:11:52.445Z,33.16
2023-05-03T13:14:56.796Z,30.94
2023-05-03T13:18:01.539Z,30.93
2023-05-03T13:21:04.952Z,32.76
2023-05-03T13:24:08.414Z,31.34
2023-05-03T13:27:12.608Z,31.12
2023-05-03T13:30:16.850Z,31.01
2023-05-03T13:33:19.562Z,31.35
2023-05-03T13:36:22.700Z,32.62
2023-05-03T13:39:25.396Z,32.84
2023-05-03T13:42:28.091Z,31.27
2023-05-03T13:45:32.062Z,32.01
2023-05-03T13:48:34.667Z,33.37
2023-05-03T13:51:38.448Z,34.68
2023-05-03T13:54:42.238Z,33.90
2023-05-03T13:57:44.977Z,33.77
2023-05-03T14:00:48.878Z,34.32
2023-05-03T14:03:51.619Z,32.98
2023-05-03T14:06:54.313Z,33.50
2023-05-03T14:09:57.466Z,34.45
2023-05-03T14:13:00.318Z,35.86
2023-05-03T14:16:04.717Z,37.61
2023-05-03T14:19:07.374Z,37.33
2023-05-03T14:22:10.150Z,37.13
2023-05-03T14:25:13.249Z,37.21
2023-05-03T14:28:15.822Z,37.94
2023-05-03T14:31:19.953Z,36.36
2023-05-03T14:34:22.578Z,37.63
2023-05-03T14:37:25.151Z,37.71
2023-05-03T14:40:27.724Z,38.04
2023-05-03T14:43:30.397Z,38.26
2023-05-03T14:46:34.403Z,37.73
2023-05-03T14:49:40.589Z,38.27
2023-05-03T14:52:43.193Z,37.39
2023-05-03T14:55:47.302Z,38.23
2023-05-03T14:58:50.299Z,37.94
2023-05-03T15:01:54.512Z,37.90
2023-05-03T15:04:57.412Z,38.19
2023-05-03T15:08:00.296Z,38.41
2023-05-03T15:11:03.046Z,39.63
2023-05-03T15:14:05.899Z,38.98
2023-05-03T15:17:10.035Z,38.95
2023-05-03T15:20:15.261Z,39.23
2023-05-03T15:23:17.960Z,39.83
2023-05-03T15:26:22.231Z,39.07
2023-05-03T15:29:24.798Z,40.64
2023-05-03T15:32:28.717Z,41.03
2023-05-03T15:35:31.398Z,42.22
2023-05-03T15:38:33.991Z,42.14
2023-05-03T15:41:36.580Z,43.05
2023-05-03T15:44:39.153Z,42.93
2023-05-03T15:47:43.157Z,43.17
2023-05-03T15:50:45.950Z,43.07
2023-05-03T15:53:48.505Z,42.27
2023-05-03T15:56:53.163Z,42.57
2023-05-03T15:59:55.861Z,42.98
2023-05-03T16:02:59.911Z,43.15
2023-05-03T16:06:02.856Z,43.17
2023-05-03T16:09:06.884Z,43.85
2023-05-03T16:12:09.461Z,44.32
2023-05-03T16:15:13.040Z,43.72
2023-05-03T16:18:17.042Z,44.32
2023-05-03T16:21:19.749Z,44.18
2023-05-03T16:24:22.454Z,45.41
2023-05-03T16:27:25.049Z,45.13
2023-05-03T16:30:27.773Z,45.62
2023-05-03T16:33:31.701Z,44.29
2023-05-03T16:36:34.439Z,45.21
2023-05-03T16:39:37.523Z,45.93
2023-05-03T16:42:40.814Z,45.15
2023-05-03T16:45:43.447Z,46.42
2023-05-03T16:48:48.097Z,46.88
2023-05-03T16:51:50.752Z,47.43
2023-05-03T16:54:53.350Z,47.56
2023-05-03T16:57:55.923Z,46.95
2023-05-03T17:00:58.537Z,48.13
2023-05-03T17:04:04.481Z,46.88
2023-05-03T17:07:07.112Z,47.69
2023-05-03T17:10:10.574Z,48.87
2023-05-03T17:13:13.494Z,48.29
2023-05-03T17:16:16.226Z,48.44
2023-05-03T17:19:20.775Z,47.83
2023-05-03T17:22:23.362Z,48.94
2023-05-03T17:25:25.917Z,48.90
2023-05-03T17:28:28.531Z,49.41
2023-05-03T17:31:31.138Z,49.14
2023-05-03T17:34:35.534Z,48.00
2023-05-03T17:37:38.501Z,49.05
2023-05-03T17:40:43.096Z,49.98
2023-05-03T17:43:45.684Z,49.82
2023-05-03T17:46:48.551Z,49.87
2023-05-03T17:49:52.536Z,50.98
2023-05-03T17:52:55.813Z,49.98
2023-05-03T17:55:58.750Z,50.24
2023-05-03T17:59:01.844Z,50.40
2023-05-03T18:02:05.177Z,51.15
2023-05-03T18:05:10.065Z,52.18
2023-05-03T18:08:13.153Z,52.36
2023-05-03T18:11:15.985Z,52.70
2023-05-03T18:14:18.601Z,52.01
2023-05-03T18:17:21.353Z,52.83
2023-05-03T18:20:25.319Z,52.03
2023-05-03T18:23:27.959Z,52.98
2023-05-03T18:26:30.561Z,53.81
2023-05-03T18:29:33.125Z,53.41
2023-05-03T18:32:36.021Z,54.33
2023-05-03T18:35:40.075Z,54.18
2023-05-03T18:38:42.883Z,55.09
2023-05-03T18:41:45.491Z,55.39
2023-05-03T18:44:48.057Z,56.42
2023-05-03T18:47:51.044Z,57.18
2023-05-03T18:50:55.212Z,57.37
2023-05-03T18:53:59.619Z,57.71
2023-05-03T18:57:02.706Z,58.66
2023-05-03T19:00:06.415Z,58.97
2023-05-03T19:03:09.024Z,60.44
2023-05-03T19:06:12.988Z,60.35
2023-05-03T19:09:16.263Z,60.89
2023-05-03T19:12:18.878Z,60.92
2023-05-03T19:15:21.633Z,61.22
2023-05-03T19:18:24.318Z,62.38
2023-05-03T19:21:28.470Z,62.93
2023-05-03T19:24:31.335Z,63.89
2023-05-03T19:27:34.173Z,63.60
2023-05-03T19:30:36.808Z,62.32
2023-05-03T19:33:39.456Z,63.18
2023-05-03T19:36:43.408Z,62.58
2023-05-03T19:39:46.175Z,63.41
2023-05-03T19:42:50.438Z,63.76
2023-05-03T19:45:53.642Z,63.63
2023-05-03T19:48:56.299Z,64.31
2023-05-03T19:52:01.903Z,66.17
2023-05-03T19:55:07.099Z,66.10
2023-05-03T19:58:09.801Z,66.93
2023-05-03T20:01:12.386Z,67.93
2023-05-03T20:04:15.077Z,68.29
2023-05-03T20:07:19.039Z,68.66
2023-05-03T20:10:21.622Z,68.88
2023-05-03T20:13:26.165Z,70.04
2023-05-03T20:19:35.370Z,70.46
2023-05-03T20:22:39.430Z,70.85
2023-05-03T20:25:42.032Z,71.07
2023-05-03T20:28:44.613Z,71.43
2023-05-03T20:31:48.508Z,71.65
2023-05-03T20:34:51.430Z,71.27
2023-05-03T20:37:55.407Z,71.87
2023-05-03T20:40:58.087Z,72.38
2023-05-03T20:44:00.659Z,72.12
2023-05-03T20:47:03.227Z,72.83
2023-05-03T20:50:07.147Z,73.66
2023-05-03T20:53:11.323Z,73.87
2023-05-03T20:56:13.904Z,74.45
2023-05-03T20:59:16.960Z,74.54
2023-05-03T21:02:19.605Z,75.00
2023-05-03T21:05:22.466Z,75.93
2023-05-03T21:08:26.782Z,75.45
2023-05-03T21:11:29.384Z,76.55
2023-05-03T21:14:31.994Z,77.37
2023-05-03T21:17:34.800Z,76.94
2023-05-03T21:20:38.242Z,77.27
2023-05-03T21:23:42.239Z,77.00
2023-05-03T21:26:44.828Z,77.35
2023-05-03T21:29:47.386Z,78.23
2023-05-03T21:32:50.501Z,78.57
2023-05-03T21:35:53.135Z,78.33
2023-05-03T21:38:57.865Z,78.50
2023-05-03T21:42:00.444Z,79.39
2023-05-03T21:45:03.149Z,79.79
2023-05-03T21:48:06.396Z,80.20
2023-05-03T21:51:09.050Z,79.23
2023-05-03T21:54:13.008Z,80.14
2023-05-03T21:57:16.010Z,80.66
2023-05-03T22:00:20.678Z,80.59
2023-05-03T22:03:23.524Z,81.01
2023-05-03T22:06:26.727Z,81.70
2023-05-03T22:09:30.779Z,81.09
2023-05-03T22:12:33.899Z,82.04
2023-05-03T22:15:36.539Z,80.97
2023-05-03T22:18:39.276Z,81.17
2023-05-03T22:21:42.364Z,81.52
2023-05-03T22:24:46.380Z,81.28
2023-05-03T22:27:48.968Z,81.20
2023-05-03T22:30:51.965Z,81.44
2023-05-03T22:33:54.631Z,82.65
2023-05-03T22:36:57.201Z,82.77
2023-05-03T22:40:01.552Z,82.50
2023-05-03T22:43:04.302Z,82.25
2023-05-03T22:46:07.182Z,83.34
2023-05-03T22:49:09.838Z,83.94
2023-05-03T22:52:12.435Z,84.09
2023-05-03T22:55:16.569Z,83.06
2023-05-03T22:58:19.217Z,84.06
2023-05-03T23:01:22.010Z,84.16
2023-05-03T23:04:24.607Z,85.03
2023-05-03T23:07:28.141Z,84.94
2023-05-03T23:10:32.087Z,85.27
2023-05-03T23:13:34.646Z,85.72
2023-05-03T23:16:37.306Z,85.83
2023-05-03T23:19:39.916Z,85.25
2023-05-03T23:22:42.520Z,86.64
2023-05-03T23:25:46.535Z,86.69
2023-05-03T23:28:49.622Z,86.51
2023-05-03T23:31:52.772Z,85.70
2023-05-03T23:34:55.890Z,86.12
2023-05-03T23:37:58.462Z,86.33
2023-05-03T23:41:02.434Z,87.30
2023-05-03T23:44:05.307Z,87.13
2023-05-03T23:47:08.010Z,86.46
2023-05-03T23:50:11.256Z,86.93
2023-05-03T23:53:13.861Z,86.94
2023-05-03T23:56:17.844Z,86.77
2023-05-03T23:59:20.432Z,87.15
